Date,TemperatureHighF,TemperatureAvgF,TemperatureLowF,DewpointHighF,DewpointAvgF,DewpointLowF,HumidityHigh,HumidityAvg,HumidityLow,PressureMaxIn,PressureMinIn,WindSpeedMaxMPH,WindSpeedAvgMPH,GustSpeedMaxMPH,PrecipitationSumIn
2013-12-1,56.5,45.4,33.3,40.8,32.6,27.4,90,63,33,30.36,30.04,5,1,7,0.00
2013-12-2,53.4,50.1,46.4,53.0,48.8,39.2,99,95,68,30.04,29.84,3,1,4,0.27
2013-12-3,58.8,54.7,50.0,58.5,54.4,49.7,99,99,99,29.90,29.83,4,1,5,0.01
2013-12-4,75.6,64.8,56.5,69.0,61.0,56.2,99,89,58,30.01,29.88,9,2,15,0.00
2013-12-5,76.1,67.3,54.1,72.8,65.8,53.9,99,95,73,30.06,29.93,4,1,9,0.00
2013-12-6,54.0,43.9,37.4,53.7,43.6,37.1,99,99,99,30.32,30.00,11,2,16,0.98
2013-12-7,39.6,36.7,34.3,39.3,36.2,34.1,99,98,94,30.49,30.32,11,6,16,0.00
2013-12-8,50.7,47.0,39.7,50.4,46.7,39.5,99,99,99,30.34,30.12,8,2,14,1.02
2013-12-9,50.2,45.8,40.1,49.9,45.5,39.8,99,99,99,30.25,30.11,4,1,8,0.54
2013-12-10,41.9,35.6,29.5,39.8,31.5,24.9,99,87,51,30.46,30.10,13,3,19,0.27
2013-12-11,50.4,36.4,27.7,35.9,28.2,15.9,99,76,29,30.54,30.42,8,2,11,0.01
2013-12-12,42.3,33.5,25.9,24.7,14.6,1.5,76,49,18,30.65,30.50,8,2,13,0.00
2013-12-13,47.1,37.6,27.3,33.2,26.0,16.6,89,64,35,30.50,30.18,9,2,11,0.00
2013-12-14,55.2,48.5,40.3,54.9,44.7,28.1,99,88,46,30.19,29.85,11,2,16,0.54
2013-12-15,40.3,36.3,32.4,37.9,31.6,27.4,97,83,72,30.35,30.05,8,2,16,0.00
2013-12-16,55.8,39.4,28.4,35.2,28.6,19.9,99,70,25,30.38,30.22,7,2,11,0.01
2013-12-17,63.7,47.8,32.4,37.7,28.6,21.4,95,54,20,30.35,30.13,10,2,15,0.00
2013-12-18,50.9,39.5,31.1,28.8,21.2,6.2,74,51,16,30.46,30.33,4,2,6,0.00
2013-12-19,63.3,43.7,30.7,39.7,27.0,5.4,99,59,10,30.37,30.20,7,1,8,0.00
2013-12-20,66.2,56.9,42.1,56.5,44.1,27.7,81,62,50,30.21,30.06,9,2,13,0.00
2013-12-21,72.9,66.8,59.7,68.8,63.0,55.7,99,88,76,30.05,29.81,16,5,21,0.05
2013-12-22,72.0,57.9,53.6,66.5,56.7,53.3,99,96,77,30.14,29.80,11,2,17,1.16
2013-12-23,54.9,41.7,32.7,54.6,37.2,24.9,99,85,65,30.49,30.11,13,4,19,0.01
2013-12-24,36.9,31.4,27.0,25.9,17.0,9.3,81,57,32,30.62,30.48,15,4,19,0.00
2013-12-25,47.1,35.5,26.2,27.1,19.4,14.8,79,54,29,30.54,30.38,7,2,9,0.00
2013-12-26,49.6,37.0,28.0,39.7,27.9,23.3,99,72,40,30.48,30.37,5,1,7,0.00
2013-12-27,52.5,38.7,28.6,33.4,26.4,11.3,96,66,19,30.55,30.42,6,2,8,0.00
2013-12-28,44.4,41.4,36.1,42.2,36.6,32.1,99,83,62,30.45,30.01,11,4,16,0.65
2013-12-29,49.5,43.7,39.2,47.1,42.8,38.9,99,97,83,30.16,29.97,6,1,8,0.12
2013-12-30,47.3,40.5,36.3,46.7,36.3,33.2,99,85,73,30.36,30.13,8,2,11,0.00
2013-12-31,42.4,35.7,31.6,33.2,27.2,22.4,89,72,46,30.55,30.35,9,2,15,0.00